sensor_id;sensor_type;location;lat;lon;timestamp;P1;durP1;ratioP1;P2;durP2;ratioP2
13891;SDS011;7016;48.172;8.058;2024-01-25T00:01:20;6.85;;;3.58;;
13891;SDS011;7016;48.172;8.058;2024-01-25T00:04:07;9.98;;;3.70;;
13891;SDS011;7016;48.172;8.058;2024-01-25T00:06:54;8.57;;;3.78;;
13891;SDS011;7016;48.172;8.058;2024-01-25T00:09:40;8.77;;;4.00;;
13891;SDS011;7016;48.172;8.058;2024-01-25T00:12:26;6.63;;;3.50;;
13891;SDS011;7016;48.172;8.058;2024-01-25T00:15:12;10.52;;;3.65;;
13891;SDS011;7016;48.172;8.058;2024-01-25T00:17:58;9.60;;;4.38;;
13891;SDS011;7016;48.172;8.058;2024-01-25T00:20:45;6.78;;;3.35;;
13891;SDS011;7016;48.172;8.058;2024-01-25T00:23:32;7.63;;;3.08;;
13891;SDS011;7016;48.172;8.058;2024-01-25T00:26:18;7.90;;;2.67;;
13891;SDS011;7016;48.172;8.058;2024-01-25T00:29:04;7.85;;;2.95;;
13891;SDS011;7016;48.172;8.058;2024-01-25T00:31:50;7.75;;;2.50;;
13891;SDS011;7016;48.172;8.058;2024-01-25T00:34:37;7.82;;;2.63;;
13891;SDS011;7016;48.172;8.058;2024-01-25T00:37:23;9.77;;;2.70;;
13891;SDS011;7016;48.172;8.058;2024-01-25T00:40:10;11.35;;;3.00;;
13891;SDS011;7016;48.172;8.058;2024-01-25T00:42:58;11.88;;;3.15;;
13891;SDS011;7016;48.172;8.058;2024-01-25T00:45:45;9.25;;;3.35;;
13891;SDS011;7016;48.172;8.058;2024-01-25T00:48:31;6.57;;;2.80;;
13891;SDS011;7016;48.172;8.058;2024-01-25T00:51:21;19.23;;;5.28;;
13891;SDS011;7016;48.172;8.058;2024-01-25T00:54:08;21.75;;;5.88;;
13891;SDS011;7016;48.172;8.058;2024-01-25T00:56:55;12.00;;;3.88;;
13891;SDS011;7016;48.172;8.058;2024-01-25T00:59:41;21.38;;;6.57;;
13891;SDS011;7016;48.172;8.058;2024-01-25T01:02:29;12.18;;;4.03;;
13891;SDS011;7016;48.172;8.058;2024-01-25T01:05:16;18.48;;;6.78;;
13891;SDS011;7016;48.172;8.058;2024-01-25T01:08:03;16.70;;;5.03;;
13891;SDS011;7016;48.172;8.058;2024-01-25T01:10:49;21.95;;;5.70;;
13891;SDS011;7016;48.172;8.058;2024-01-25T01:13:35;20.73;;;4.38;;
13891;SDS011;7016;48.172;8.058;2024-01-25T01:16:22;7.78;;;2.83;;
13891;SDS011;7016;48.172;8.058;2024-01-25T01:19:08;12.43;;;3.30;;
13891;SDS011;7016;48.172;8.058;2024-01-25T01:21:54;16.15;;;5.13;;
13891;SDS011;7016;48.172;8.058;2024-01-25T01:24:40;17.88;;;5.53;;
13891;SDS011;7016;48.172;8.058;2024-01-25T01:27:27;18.83;;;5.32;;
13891;SDS011;7016;48.172;8.058;2024-01-25T01:30:13;15.43;;;4.03;;
13891;SDS011;7016;48.172;8.058;2024-01-25T01:32:59;15.02;;;3.65;;
13891;SDS011;7016;48.172;8.058;2024-01-25T01:35:45;12.25;;;3.72;;
13891;SDS011;7016;48.172;8.058;2024-01-25T01:38:31;9.35;;;3.17;;
13891;SDS011;7016;48.172;8.058;2024-01-25T01:41:17;16.30;;;4.82;;
13891;SDS011;7016;48.172;8.058;2024-01-25T01:44:04;16.65;;;5.53;;
13891;SDS011;7016;48.172;8.058;2024-01-25T01:46:50;11.52;;;4.20;;
13891;SDS011;7016;48.172;8.058;2024-01-25T01:49:36;12.38;;;2.60;;
13891;SDS011;7016;48.172;8.058;2024-01-25T01:52:22;13.30;;;2.60;;
13891;SDS011;7016;48.172;8.058;2024-01-25T01:55:09;22.75;;;7.65;;
13891;SDS011;7016;48.172;8.058;2024-01-25T01:57:55;21.02;;;7.47;;
13891;SDS011;7016;48.172;8.058;2024-01-25T02:00:42;15.10;;;4.22;;
13891;SDS011;7016;48.172;8.058;2024-01-25T02:03:28;11.00;;;4.45;;
13891;SDS011;7016;48.172;8.058;2024-01-25T02:06:14;7.10;;;2.83;;
13891;SDS011;7016;48.172;8.058;2024-01-25T02:09:01;7.55;;;3.17;;
13891;SDS011;7016;48.172;8.058;2024-01-25T02:11:47;9.82;;;3.88;;
13891;SDS011;7016;48.172;8.058;2024-01-25T02:14:43;6.40;;;2.55;;
13891;SDS011;7016;48.172;8.058;2024-01-25T02:17:31;10.00;;;2.97;;
13891;SDS011;7016;48.172;8.058;2024-01-25T02:20:18;10.35;;;3.65;;
13891;SDS011;7016;48.172;8.058;2024-01-25T02:23:04;6.10;;;3.30;;
13891;SDS011;7016;48.172;8.058;2024-01-25T02:25:50;10.82;;;4.13;;
13891;SDS011;7016;48.172;8.058;2024-01-25T02:28:36;8.57;;;4.38;;
13891;SDS011;7016;48.172;8.058;2024-01-25T02:31:22;5.13;;;3.30;;
13891;SDS011;7016;48.172;8.058;2024-01-25T02:34:09;7.63;;;3.40;;
13891;SDS011;7016;48.172;8.058;2024-01-25T02:36:55;6.22;;;2.60;;
13891;SDS011;7016;48.172;8.058;2024-01-25T02:39:41;7.90;;;2.92;;
13891;SDS011;7016;48.172;8.058;2024-01-25T02:42:27;7.38;;;2.70;;
13891;SDS011;7016;48.172;8.058;2024-01-25T02:45:13;5.55;;;2.70;;
13891;SDS011;7016;48.172;8.058;2024-01-25T02:48:00;6.00;;;2.50;;
13891;SDS011;7016;48.172;8.058;2024-01-25T02:50:47;6.72;;;2.33;;
13891;SDS011;7016;48.172;8.058;2024-01-25T02:53:33;7.45;;;2.78;;
13891;SDS011;7016;48.172;8.058;2024-01-25T02:56:20;4.70;;;1.98;;
13891;SDS011;7016;48.172;8.058;2024-01-25T02:59:06;5.30;;;1.90;;
13891;SDS011;7016;48.172;8.058;2024-01-25T03:01:53;2.78;;;1.95;;
13891;SDS011;7016;48.172;8.058;2024-01-25T03:04:39;2.80;;;2.00;;
13891;SDS011;7016;48.172;8.058;2024-01-25T03:07:26;3.75;;;1.85;;
13891;SDS011;7016;48.172;8.058;2024-01-25T03:10:12;3.22;;;1.92;;
13891;SDS011;7016;48.172;8.058;2024-01-25T03:12:59;4.18;;;1.92;;
13891;SDS011;7016;48.172;8.058;2024-01-25T03:15:45;2.97;;;1.80;;
13891;SDS011;7016;48.172;8.058;2024-01-25T03:18:31;8.50;;;3.40;;
13891;SDS011;7016;48.172;8.058;2024-01-25T03:21:17;16.88;;;5.63;;
13891;SDS011;7016;48.172;8.058;2024-01-25T03:24:03;32.50;;;8.98;;
13891;SDS011;7016;48.172;8.058;2024-01-25T03:26:50;15.77;;;6.60;;
13891;SDS011;7016;48.172;8.058;2024-01-25T03:29:36;13.57;;;5.15;;
13891;SDS011;7016;48.172;8.058;2024-01-25T03:32:22;12.98;;;5.43;;
13891;SDS011;7016;48.172;8.058;2024-01-25T03:35:08;11.73;;;4.28;;
13891;SDS011;7016;48.172;8.058;2024-01-25T03:37:54;8.23;;;3.50;;
13891;SDS011;7016;48.172;8.058;2024-01-25T03:40:41;11.27;;;4.50;;
13891;SDS011;7016;48.172;8.058;2024-01-25T03:43:27;7.47;;;3.08;;
13891;SDS011;7016;48.172;8.058;2024-01-25T03:46:13;7.40;;;2.35;;
13891;SDS011;7016;48.172;8.058;2024-01-25T03:48:59;9.20;;;2.10;;
13891;SDS011;7016;48.172;8.058;2024-01-25T03:51:45;6.22;;;1.95;;
13891;SDS011;7016;48.172;8.058;2024-01-25T03:54:32;9.40;;;1.88;;
13891;SDS011;7016;48.172;8.058;2024-01-25T03:57:18;5.68;;;1.52;;
13891;SDS011;7016;48.172;8.058;2024-01-25T04:00:04;8.25;;;2.00;;
13891;SDS011;7016;48.172;8.058;2024-01-25T04:02:51;7.43;;;1.80;;
13891;SDS011;7016;48.172;8.058;2024-01-25T04:05:37;6.25;;;1.90;;
13891;SDS011;7016;48.172;8.058;2024-01-25T04:08:25;6.97;;;1.90;;
13891;SDS011;7016;48.172;8.058;2024-01-25T04:11:11;6.47;;;1.67;;
13891;SDS011;7016;48.172;8.058;2024-01-25T04:13:59;3.58;;;1.20;;
13891;SDS011;7016;48.172;8.058;2024-01-25T04:16:45;14.25;;;3.60;;
13891;SDS011;7016;48.172;8.058;2024-01-25T04:19:32;9.70;;;2.40;;
13891;SDS011;7016;48.172;8.058;2024-01-25T04:22:18;8.82;;;1.75;;
13891;SDS011;7016;48.172;8.058;2024-01-25T04:25:04;8.95;;;2.42;;
13891;SDS011;7016;48.172;8.058;2024-01-25T04:27:51;9.52;;;2.28;;
13891;SDS011;7016;48.172;8.058;2024-01-25T04:30:37;16.08;;;4.15;;
13891;SDS011;7016;48.172;8.058;2024-01-25T04:33:23;13.85;;;3.42;;
13891;SDS011;7016;48.172;8.058;2024-01-25T04:36:09;7.13;;;1.73;;
13891;SDS011;7016;48.172;8.058;2024-01-25T04:38:55;9.20;;;1.75;;
13891;SDS011;7016;48.172;8.058;2024-01-25T04:41:42;6.07;;;1.58;;
13891;SDS011;7016;48.172;8.058;2024-01-25T04:44:28;9.95;;;2.30;;
13891;SDS011;7016;48.172;8.058;2024-01-25T04:47:14;8.25;;;1.95;;
13891;SDS011;7016;48.172;8.058;2024-01-25T04:50:00;9.77;;;3.60;;
13891;SDS011;7016;48.172;8.058;2024-01-25T04:52:46;8.65;;;2.10;;
13891;SDS011;7016;48.172;8.058;2024-01-25T04:55:33;8.30;;;2.10;;
13891;SDS011;7016;48.172;8.058;2024-01-25T04:58:19;11.15;;;2.40;;
13891;SDS011;7016;48.172;8.058;2024-01-25T05:01:05;9.57;;;2.15;;
13891;SDS011;7016;48.172;8.058;2024-01-25T05:03:52;14.85;;;2.85;;
13891;SDS011;7016;48.172;8.058;2024-01-25T05:06:38;14.48;;;4.13;;
13891;SDS011;7016;48.172;8.058;2024-01-25T05:09:24;6.50;;;2.53;;
13891;SDS011;7016;48.172;8.058;2024-01-25T05:12:11;9.30;;;2.63;;
13891;SDS011;7016;48.172;8.058;2024-01-25T05:14:57;5.28;;;2.13;;
13891;SDS011;7016;48.172;8.058;2024-01-25T05:17:44;7.38;;;1.90;;
13891;SDS011;7016;48.172;8.058;2024-01-25T05:20:30;8.60;;;2.00;;
13891;SDS011;7016;48.172;8.058;2024-01-25T05:23:19;8.27;;;2.55;;
13891;SDS011;7016;48.172;8.058;2024-01-25T05:26:06;8.30;;;2.00;;
13891;SDS011;7016;48.172;8.058;2024-01-25T05:28:52;7.15;;;2.30;;
13891;SDS011;7016;48.172;8.058;2024-01-25T05:31:38;14.30;;;3.20;;
13891;SDS011;7016;48.172;8.058;2024-01-25T05:34:24;27.42;;;8.35;;
13891;SDS011;7016;48.172;8.058;2024-01-25T05:37:10;28.42;;;9.75;;
13891;SDS011;7016;48.172;8.058;2024-01-25T05:39:57;29.90;;;9.15;;
13891;SDS011;7016;48.172;8.058;2024-01-25T05:42:43;18.15;;;6.97;;
13891;SDS011;7016;48.172;8.058;2024-01-25T05:45:29;24.00;;;7.15;;
13891;SDS011;7016;48.172;8.058;2024-01-25T05:48:15;14.85;;;6.25;;
13891;SDS011;7016;48.172;8.058;2024-01-25T05:51:02;13.30;;;5.97;;
13891;SDS011;7016;48.172;8.058;2024-01-25T05:53:48;12.30;;;4.53;;
13891;SDS011;7016;48.172;8.058;2024-01-25T05:56:34;10.27;;;3.90;;
13891;SDS011;7016;48.172;8.058;2024-01-25T05:59:20;9.20;;;3.72;;
13891;SDS011;7016;48.172;8.058;2024-01-25T06:02:06;9.52;;;3.97;;
13891;SDS011;7016;48.172;8.058;2024-01-25T06:04:54;10.40;;;2.80;;
13891;SDS011;7016;48.172;8.058;2024-01-25T06:07:43;9.07;;;3.30;;
13891;SDS011;7016;48.172;8.058;2024-01-25T06:10:29;10.70;;;4.03;;
13891;SDS011;7016;48.172;8.058;2024-01-25T06:13:16;9.77;;;3.50;;
13891;SDS011;7016;48.172;8.058;2024-01-25T06:16:02;11.70;;;4.05;;
13891;SDS011;7016;48.172;8.058;2024-01-25T06:18:48;14.15;;;3.60;;
13891;SDS011;7016;48.172;8.058;2024-01-25T06:21:34;14.35;;;5.35;;
13891;SDS011;7016;48.172;8.058;2024-01-25T06:24:23;23.25;;;6.15;;
13891;SDS011;7016;48.172;8.058;2024-01-25T06:27:09;14.27;;;4.45;;
13891;SDS011;7016;48.172;8.058;2024-01-25T06:29:55;12.73;;;4.70;;
13891;SDS011;7016;48.172;8.058;2024-01-25T06:32:42;7.05;;;3.60;;
13891;SDS011;7016;48.172;8.058;2024-01-25T06:35:28;15.90;;;5.32;;
13891;SDS011;7016;48.172;8.058;2024-01-25T06:38:14;13.07;;;5.22;;
13891;SDS011;7016;48.172;8.058;2024-01-25T06:41:00;16.85;;;7.00;;
13891;SDS011;7016;48.172;8.058;2024-01-25T06:43:46;14.70;;;6.03;;
13891;SDS011;7016;48.172;8.058;2024-01-25T06:46:32;15.63;;;5.55;;
13891;SDS011;7016;48.172;8.058;2024-01-25T06:49:19;11.18;;;4.70;;
13891;SDS011;7016;48.172;8.058;2024-01-25T06:52:05;12.75;;;4.93;;
13891;SDS011;7016;48.172;8.058;2024-01-25T06:54:51;11.60;;;4.10;;
13891;SDS011;7016;48.172;8.058;2024-01-25T06:57:38;6.90;;;3.20;;
13891;SDS011;7016;48.172;8.058;2024-01-25T07:00:27;6.50;;;3.08;;
13891;SDS011;7016;48.172;8.058;2024-01-25T07:03:14;9.88;;;3.40;;
13891;SDS011;7016;48.172;8.058;2024-01-25T07:06:00;12.50;;;5.47;;
13891;SDS011;7016;48.172;8.058;2024-01-25T07:08:46;15.27;;;6.85;;
13891;SDS011;7016;48.172;8.058;2024-01-25T07:11:33;9.38;;;4.35;;
13891;SDS011;7016;48.172;8.058;2024-01-25T07:14:19;8.20;;;3.45;;
13891;SDS011;7016;48.172;8.058;2024-01-25T07:17:05;8.07;;;3.63;;
13891;SDS011;7016;48.172;8.058;2024-01-25T07:19:51;8.57;;;3.28;;
13891;SDS011;7016;48.172;8.058;2024-01-25T07:22:37;6.70;;;3.80;;
13891;SDS011;7016;48.172;8.058;2024-01-25T07:25:23;16.60;;;5.82;;
13891;SDS011;7016;48.172;8.058;2024-01-25T07:28:10;18.77;;;7.28;;
13891;SDS011;7016;48.172;8.058;2024-01-25T07:30:56;17.38;;;8.95;;
13891;SDS011;7016;48.172;8.058;2024-01-25T07:33:42;17.80;;;9.05;;
13891;SDS011;7016;48.172;8.058;2024-01-25T07:36:28;24.02;;;9.45;;
13891;SDS011;7016;48.172;8.058;2024-01-25T07:39:15;20.90;;;9.27;;
13891;SDS011;7016;48.172;8.058;2024-01-25T07:42:01;20.73;;;10.15;;
13891;SDS011;7016;48.172;8.058;2024-01-25T07:44:47;20.70;;;9.35;;
13891;SDS011;7016;48.172;8.058;2024-01-25T07:47:34;15.60;;;7.82;;
13891;SDS011;7016;48.172;8.058;2024-01-25T07:50:20;16.15;;;8.95;;
13891;SDS011;7016;48.172;8.058;2024-01-25T07:53:07;16.30;;;8.98;;
13891;SDS011;7016;48.172;8.058;2024-01-25T07:55:53;14.27;;;8.55;;
13891;SDS011;7016;48.172;8.058;2024-01-25T07:58:40;12.48;;;8.05;;
13891;SDS011;7016;48.172;8.058;2024-01-25T08:01:26;12.95;;;8.48;;
13891;SDS011;7016;48.172;8.058;2024-01-25T08:04:12;13.75;;;8.80;;
13891;SDS011;7016;48.172;8.058;2024-01-25T08:06:59;14.02;;;9.52;;
13891;SDS011;7016;48.172;8.058;2024-01-25T08:09:45;15.00;;;9.63;;
13891;SDS011;7016;48.172;8.058;2024-01-25T08:12:31;13.32;;;8.88;;
13891;SDS011;7016;48.172;8.058;2024-01-25T08:15:17;17.05;;;10.32;;
13891;SDS011;7016;48.172;8.058;2024-01-25T08:18:04;18.65;;;10.18;;
13891;SDS011;7016;48.172;8.058;2024-01-25T08:20:50;21.08;;;13.63;;
13891;SDS011;7016;48.172;8.058;2024-01-25T08:23:36;15.98;;;10.07;;
13891;SDS011;7016;48.172;8.058;2024-01-25T08:26:22;28.50;;;18.48;;
13891;SDS011;7016;48.172;8.058;2024-01-25T08:29:08;11.05;;;7.55;;
13891;SDS011;7016;48.172;8.058;2024-01-25T08:31:54;17.98;;;11.70;;
13891;SDS011;7016;48.172;8.058;2024-01-25T08:34:41;15.65;;;10.95;;
13891;SDS011;7016;48.172;8.058;2024-01-25T08:37:27;20.35;;;10.98;;
13891;SDS011;7016;48.172;8.058;2024-01-25T08:40:13;16.05;;;10.57;;
13891;SDS011;7016;48.172;8.058;2024-01-25T08:43:01;16.55;;;9.23;;
13891;SDS011;7016;48.172;8.058;2024-01-25T08:45:52;23.77;;;13.60;;
13891;SDS011;7016;48.172;8.058;2024-01-25T08:48:39;25.92;;;13.88;;
13891;SDS011;7016;48.172;8.058;2024-01-25T08:51:25;22.15;;;13.02;;
13891;SDS011;7016;48.172;8.058;2024-01-25T08:54:11;19.92;;;13.23;;
13891;SDS011;7016;48.172;8.058;2024-01-25T08:56:57;15.98;;;10.10;;
13891;SDS011;7016;48.172;8.058;2024-01-25T08:59:43;13.23;;;8.68;;
13891;SDS011;7016;48.172;8.058;2024-01-25T09:02:29;15.65;;;8.25;;
13891;SDS011;7016;48.172;8.058;2024-01-25T09:05:18;14.30;;;8.55;;
13891;SDS011;7016;48.172;8.058;2024-01-25T09:08:04;18.50;;;8.80;;
13891;SDS011;7016;48.172;8.058;2024-01-25T09:10:50;14.77;;;8.18;;
13891;SDS011;7016;48.172;8.058;2024-01-25T09:13:36;14.60;;;7.82;;
13891;SDS011;7016;48.172;8.058;2024-01-25T09:16:23;8.32;;;3.30;;
13891;SDS011;7016;48.172;8.058;2024-01-25T09:19:09;15.27;;;6.25;;
13891;SDS011;7016;48.172;8.058;2024-01-25T09:21:55;24.38;;;9.32;;
13891;SDS011;7016;48.172;8.058;2024-01-25T09:24:43;15.63;;;7.80;;
13891;SDS011;7016;48.172;8.058;2024-01-25T09:27:29;11.60;;;5.50;;
13891;SDS011;7016;48.172;8.058;2024-01-25T09:30:16;17.30;;;8.48;;
13891;SDS011;7016;48.172;8.058;2024-01-25T09:33:02;18.33;;;9.32;;
13891;SDS011;7016;48.172;8.058;2024-01-25T09:35:48;16.27;;;8.48;;
13891;SDS011;7016;48.172;8.058;2024-01-25T09:38:35;13.30;;;7.30;;
13891;SDS011;7016;48.172;8.058;2024-01-25T09:41:21;13.82;;;6.90;;
13891;SDS011;7016;48.172;8.058;2024-01-25T09:44:07;16.23;;;8.70;;
13891;SDS011;7016;48.172;8.058;2024-01-25T09:46:54;20.10;;;6.78;;
13891;SDS011;7016;48.172;8.058;2024-01-25T09:49:41;11.75;;;5.97;;
13891;SDS011;7016;48.172;8.058;2024-01-25T09:52:28;11.85;;;4.95;;
13891;SDS011;7016;48.172;8.058;2024-01-25T09:55:16;7.38;;;3.63;;
13891;SDS011;7016;48.172;8.058;2024-01-25T09:58:05;12.52;;;6.40;;
13891;SDS011;7016;48.172;8.058;2024-01-25T10:00:53;12.27;;;7.13;;
13891;SDS011;7016;48.172;8.058;2024-01-25T10:03:44;11.50;;;6.00;;
13891;SDS011;7016;48.172;8.058;2024-01-25T10:06:31;14.15;;;6.18;;
13891;SDS011;7016;48.172;8.058;2024-01-25T10:09:19;15.45;;;7.60;;
13891;SDS011;7016;48.172;8.058;2024-01-25T10:12:05;10.65;;;6.13;;
13891;SDS011;7016;48.172;8.058;2024-01-25T10:14:51;8.07;;;4.10;;
13891;SDS011;7016;48.172;8.058;2024-01-25T10:17:38;7.75;;;4.25;;
13891;SDS011;7016;48.172;8.058;2024-01-25T10:20:25;8.25;;;4.45;;
13891;SDS011;7016;48.172;8.058;2024-01-25T10:23:12;8.45;;;4.72;;
13891;SDS011;7016;48.172;8.058;2024-01-25T10:25:58;7.05;;;4.60;;
13891;SDS011;7016;48.172;8.058;2024-01-25T10:28:52;10.30;;;4.50;;
13891;SDS011;7016;48.172;8.058;2024-01-25T10:31:38;7.40;;;4.40;;
13891;SDS011;7016;48.172;8.058;2024-01-25T10:34:28;9.77;;;4.82;;
13891;SDS011;7016;48.172;8.058;2024-01-25T10:37:15;7.40;;;4.03;;
13891;SDS011;7016;48.172;8.058;2024-01-25T10:40:03;5.05;;;2.60;;
13891;SDS011;7016;48.172;8.058;2024-01-25T10:42:50;5.38;;;2.30;;
13891;SDS011;7016;48.172;8.058;2024-01-25T10:45:36;2.70;;;1.50;;
13891;SDS011;7016;48.172;8.058;2024-01-25T10:48:22;4.90;;;2.30;;
13891;SDS011;7016;48.172;8.058;2024-01-25T10:51:09;4.63;;;1.90;;
13891;SDS011;7016;48.172;8.058;2024-01-25T10:53:55;4.00;;;1.60;;
13891;SDS011;7016;48.172;8.058;2024-01-25T10:56:45;5.80;;;3.28;;
13891;SDS011;7016;48.172;8.058;2024-01-25T10:59:32;17.90;;;6.78;;
13891;SDS011;7016;48.172;8.058;2024-01-25T11:02:19;16.77;;;8.05;;
13891;SDS011;7016;48.172;8.058;2024-01-25T11:05:06;7.18;;;3.75;;
13891;SDS011;7016;48.172;8.058;2024-01-25T11:07:57;4.53;;;2.60;;
13891;SDS011;7016;48.172;8.058;2024-01-25T11:10:46;4.20;;;2.53;;
13891;SDS011;7016;48.172;8.058;2024-01-25T11:13:41;8.15;;;3.35;;
13891;SDS011;7016;48.172;8.058;2024-01-25T11:16:29;5.90;;;3.10;;
13891;SDS011;7016;48.172;8.058;2024-01-25T11:19:17;5.10;;;2.85;;
13891;SDS011;7016;48.172;8.058;2024-01-25T11:22:05;5.10;;;2.33;;
13891;SDS011;7016;48.172;8.058;2024-01-25T11:24:51;3.83;;;2.47;;
13891;SDS011;7016;48.172;8.058;2024-01-25T11:27:37;4.80;;;2.40;;
13891;SDS011;7016;48.172;8.058;2024-01-25T11:30:24;5.07;;;2.60;;
13891;SDS011;7016;48.172;8.058;2024-01-25T11:33:11;2.80;;;1.90;;
13891;SDS011;7016;48.172;8.058;2024-01-25T11:35:57;3.35;;;1.83;;
13891;SDS011;7016;48.172;8.058;2024-01-25T11:38:43;5.82;;;2.25;;
13891;SDS011;7016;48.172;8.058;2024-01-25T11:41:33;4.75;;;2.35;;
13891;SDS011;7016;48.172;8.058;2024-01-25T11:44:19;6.93;;;2.80;;
13891;SDS011;7016;48.172;8.058;2024-01-25T11:47:08;6.85;;;3.30;;
13891;SDS011;7016;48.172;8.058;2024-01-25T11:49:54;8.32;;;4.43;;
13891;SDS011;7016;48.172;8.058;2024-01-25T11:52:41;6.80;;;3.58;;
13891;SDS011;7016;48.172;8.058;2024-01-25T11:55:27;8.25;;;4.55;;
13891;SDS011;7016;48.172;8.058;2024-01-25T11:58:13;7.18;;;4.88;;
13891;SDS011;7016;48.172;8.058;2024-01-25T12:00:59;5.57;;;3.60;;
13891;SDS011;7016;48.172;8.058;2024-01-25T12:03:46;6.80;;;3.85;;
13891;SDS011;7016;48.172;8.058;2024-01-25T12:06:33;6.63;;;4.13;;
13891;SDS011;7016;48.172;8.058;2024-01-25T12:09:19;7.47;;;4.13;;
13891;SDS011;7016;48.172;8.058;2024-01-25T12:12:05;4.90;;;3.15;;
13891;SDS011;7016;48.172;8.058;2024-01-25T12:15:04;4.32;;;3.08;;
13891;SDS011;7016;48.172;8.058;2024-01-25T12:18:08;5.60;;;3.25;;
13891;SDS011;7016;48.172;8.058;2024-01-25T12:20:57;9.18;;;4.82;;
13891;SDS011;7016;48.172;8.058;2024-01-25T12:23:44;24.80;;;21.00;;
13891;SDS011;7016;48.172;8.058;2024-01-25T12:26:33;5.82;;;3.45;;
13891;SDS011;7016;48.172;8.058;2024-01-25T12:29:21;5.03;;;2.25;;
13891;SDS011;7016;48.172;8.058;2024-01-25T12:32:07;3.10;;;2.05;;
13891;SDS011;7016;48.172;8.058;2024-01-25T12:34:54;7.57;;;3.80;;
13891;SDS011;7016;48.172;8.058;2024-01-25T12:37:49;7.25;;;4.20;;
13891;SDS011;7016;48.172;8.058;2024-01-25T12:40:35;7.75;;;4.80;;
13891;SDS011;7016;48.172;8.058;2024-01-25T12:43:21;5.03;;;3.78;;
13891;SDS011;7016;48.172;8.058;2024-01-25T12:46:07;7.28;;;3.65;;
13891;SDS011;7016;48.172;8.058;2024-01-25T12:48:54;7.40;;;4.03;;
13891;SDS011;7016;48.172;8.058;2024-01-25T12:51:40;7.03;;;3.50;;
13891;SDS011;7016;48.172;8.058;2024-01-25T12:54:27;6.53;;;3.92;;
13891;SDS011;7016;48.172;8.058;2024-01-25T12:57:14;5.68;;;3.28;;
13891;SDS011;7016;48.172;8.058;2024-01-25T13:00:00;4.03;;;2.60;;
13891;SDS011;7016;48.172;8.058;2024-01-25T13:02:46;7.40;;;2.78;;
13891;SDS011;7016;48.172;8.058;2024-01-25T13:05:32;2.63;;;1.73;;
13891;SDS011;7016;48.172;8.058;2024-01-25T13:08:19;2.15;;;1.55;;
13891;SDS011;7016;48.172;8.058;2024-01-25T13:11:05;3.13;;;2.10;;
13891;SDS011;7016;48.172;8.058;2024-01-25T13:13:51;5.40;;;3.60;;
13891;SDS011;7016;48.172;8.058;2024-01-25T13:16:38;4.00;;;2.85;;
13891;SDS011;7016;48.172;8.058;2024-01-25T13:19:24;2.55;;;1.80;;
13891;SDS011;7016;48.172;8.058;2024-01-25T13:22:10;4.05;;;3.05;;
13891;SDS011;7016;48.172;8.058;2024-01-25T13:24:56;3.88;;;3.10;;
13891;SDS011;7016;48.172;8.058;2024-01-25T13:27:43;6.22;;;3.88;;
13891;SDS011;7016;48.172;8.058;2024-01-25T13:30:30;7.00;;;4.82;;
13891;SDS011;7016;48.172;8.058;2024-01-25T13:33:16;12.13;;;10.00;;
13891;SDS011;7016;48.172;8.058;2024-01-25T13:36:02;8.00;;;6.40;;
13891;SDS011;7016;48.172;8.058;2024-01-25T13:38:54;6.15;;;4.13;;
13891;SDS011;7016;48.172;8.058;2024-01-25T13:41:40;6.88;;;3.83;;
13891;SDS011;7016;48.172;8.058;2024-01-25T13:44:26;6.63;;;4.07;;
13891;SDS011;7016;48.172;8.058;2024-01-25T13:47:12;5.53;;;4.10;;
13891;SDS011;7016;48.172;8.058;2024-01-25T13:49:58;6.45;;;3.65;;
13891;SDS011;7016;48.172;8.058;2024-01-25T13:52:44;4.25;;;2.17;;
13891;SDS011;7016;48.172;8.058;2024-01-25T13:55:31;5.95;;;2.92;;
13891;SDS011;7016;48.172;8.058;2024-01-25T13:58:17;5.93;;;3.42;;
13891;SDS011;7016;48.172;8.058;2024-01-25T14:01:03;5.25;;;3.40;;
13891;SDS011;7016;48.172;8.058;2024-01-25T14:03:50;4.47;;;2.60;;
13891;SDS011;7016;48.172;8.058;2024-01-25T14:06:37;6.45;;;3.38;;
13891;SDS011;7016;48.172;8.058;2024-01-25T14:09:23;7.35;;;3.40;;
13891;SDS011;7016;48.172;8.058;2024-01-25T14:12:09;5.45;;;3.40;;
13891;SDS011;7016;48.172;8.058;2024-01-25T14:14:57;5.55;;;3.25;;
13891;SDS011;7016;48.172;8.058;2024-01-25T14:17:43;5.82;;;3.47;;
13891;SDS011;7016;48.172;8.058;2024-01-25T14:20:29;6.47;;;3.67;;
13891;SDS011;7016;48.172;8.058;2024-01-25T14:23:15;4.68;;;3.05;;
13891;SDS011;7016;48.172;8.058;2024-01-25T14:26:01;6.55;;;3.33;;
13891;SDS011;7016;48.172;8.058;2024-01-25T14:28:48;4.60;;;3.20;;
13891;SDS011;7016;48.172;8.058;2024-01-25T14:31:35;6.25;;;3.70;;
13891;SDS011;7016;48.172;8.058;2024-01-25T14:34:22;6.55;;;3.00;;
13891;SDS011;7016;48.172;8.058;2024-01-25T14:37:08;4.60;;;2.47;;
13891;SDS011;7016;48.172;8.058;2024-01-25T14:39:54;5.82;;;3.47;;
13891;SDS011;7016;48.172;8.058;2024-01-25T14:42:40;7.25;;;3.40;;
13891;SDS011;7016;48.172;8.058;2024-01-25T14:45:26;5.13;;;3.75;;
13891;SDS011;7016;48.172;8.058;2024-01-25T14:48:15;4.05;;;3.17;;
13891;SDS011;7016;48.172;8.058;2024-01-25T14:51:02;4.72;;;3.50;;
13891;SDS011;7016;48.172;8.058;2024-01-25T14:53:48;3.92;;;3.20;;
13891;SDS011;7016;48.172;8.058;2024-01-25T14:56:36;4.93;;;3.80;;
13891;SDS011;7016;48.172;8.058;2024-01-25T14:59:23;5.20;;;4.00;;
13891;SDS011;7016;48.172;8.058;2024-01-25T15:02:10;6.50;;;4.53;;
13891;SDS011;7016;48.172;8.058;2024-01-25T15:04:57;5.45;;;4.03;;
13891;SDS011;7016;48.172;8.058;2024-01-25T15:07:43;5.68;;;4.20;;
13891;SDS011;7016;48.172;8.058;2024-01-25T15:10:30;5.47;;;4.10;;
13891;SDS011;7016;48.172;8.058;2024-01-25T15:13:17;5.38;;;3.90;;
13891;SDS011;7016;48.172;8.058;2024-01-25T15:16:03;7.10;;;4.93;;
13891;SDS011;7016;48.172;8.058;2024-01-25T15:18:49;6.20;;;4.50;;
13891;SDS011;7016;48.172;8.058;2024-01-25T15:21:35;7.20;;;4.18;;
13891;SDS011;7016;48.172;8.058;2024-01-25T15:24:22;6.80;;;4.20;;
13891;SDS011;7016;48.172;8.058;2024-01-25T15:27:08;6.65;;;4.97;;
13891;SDS011;7016;48.172;8.058;2024-01-25T15:29:55;5.45;;;4.38;;
13891;SDS011;7016;48.172;8.058;2024-01-25T15:32:41;6.80;;;5.18;;
13891;SDS011;7016;48.172;8.058;2024-01-25T15:35:28;11.55;;;6.18;;
13891;SDS011;7016;48.172;8.058;2024-01-25T15:38:14;9.77;;;5.70;;
13891;SDS011;7016;48.172;8.058;2024-01-25T15:41:03;10.85;;;6.63;;
13891;SDS011;7016;48.172;8.058;2024-01-25T15:43:49;9.18;;;6.85;;
13891;SDS011;7016;48.172;8.058;2024-01-25T15:46:36;10.02;;;7.32;;
13891;SDS011;7016;48.172;8.058;2024-01-25T15:49:22;10.13;;;7.43;;
13891;SDS011;7016;48.172;8.058;2024-01-25T15:52:08;11.15;;;8.48;;
13891;SDS011;7016;48.172;8.058;2024-01-25T15:54:54;10.25;;;8.23;;
13891;SDS011;7016;48.172;8.058;2024-01-25T15:57:41;15.85;;;8.30;;
13891;SDS011;7016;48.172;8.058;2024-01-25T16:00:27;14.45;;;9.45;;
13891;SDS011;7016;48.172;8.058;2024-01-25T16:03:13;22.42;;;14.30;;
13891;SDS011;7016;48.172;8.058;2024-01-25T16:05:59;27.15;;;16.05;;
13891;SDS011;7016;48.172;8.058;2024-01-25T16:08:46;27.25;;;17.50;;
13891;SDS011;7016;48.172;8.058;2024-01-25T16:11:32;23.90;;;15.90;;
13891;SDS011;7016;48.172;8.058;2024-01-25T16:14:18;22.20;;;13.68;;
13891;SDS011;7016;48.172;8.058;2024-01-25T16:17:05;19.40;;;12.20;;
13891;SDS011;7016;48.172;8.058;2024-01-25T16:19:51;24.90;;;13.15;;
13891;SDS011;7016;48.172;8.058;2024-01-25T16:22:37;19.67;;;12.50;;
13891;SDS011;7016;48.172;8.058;2024-01-25T16:25:23;16.95;;;10.93;;
13891;SDS011;7016;48.172;8.058;2024-01-25T16:28:09;16.42;;;11.00;;
13891;SDS011;7016;48.172;8.058;2024-01-25T16:30:56;24.10;;;14.68;;
13891;SDS011;7016;48.172;8.058;2024-01-25T16:33:42;20.50;;;13.63;;
13891;SDS011;7016;48.172;8.058;2024-01-25T16:36:28;52.03;;;30.67;;
13891;SDS011;7016;48.172;8.058;2024-01-25T16:39:14;31.42;;;17.45;;
13891;SDS011;7016;48.172;8.058;2024-01-25T16:42:02;19.83;;;14.30;;
13891;SDS011;7016;48.172;8.058;2024-01-25T16:44:48;22.95;;;15.57;;
13891;SDS011;7016;48.172;8.058;2024-01-25T16:47:35;30.20;;;18.60;;
13891;SDS011;7016;48.172;8.058;2024-01-25T16:50:21;27.38;;;18.73;;